createdAt,value
2022-08-26T00:01:40.656Z,21.30
2022-08-26T00:04:07.964Z,21.10
2022-08-26T00:06:34.826Z,21.20
2022-08-26T00:09:02.000Z,21.20
2022-08-26T00:11:28.937Z,21.20
2022-08-26T00:13:57.178Z,21.30
2022-08-26T00:16:27.919Z,21.30
2022-08-26T00:18:55.578Z,21.20
2022-08-26T00:21:22.582Z,21.10
2022-08-26T00:23:50.481Z,21.20
2022-08-26T00:26:17.497Z,21.10
2022-08-26T00:28:44.667Z,21.10
2022-08-26T00:31:11.585Z,21.10
2022-08-26T00:33:39.590Z,21.20
2022-08-26T00:36:07.703Z,21.10
2022-08-26T00:38:37.844Z,21.00
2022-08-26T00:41:05.896Z,21.00
2022-08-26T00:43:46.069Z,20.90
2022-08-26T00:46:19.663Z,21.00
2022-08-26T00:48:50.073Z,20.90
2022-08-26T00:51:20.313Z,20.90
2022-08-26T00:53:54.598Z,20.90
2022-08-26T00:56:24.387Z,20.80
2022-08-26T00:58:51.423Z,20.90
2022-08-26T01:01:18.882Z,21.00
2022-08-26T01:03:50.362Z,20.90
2022-08-26T01:06:17.336Z,20.80
2022-08-26T01:08:44.209Z,20.90
2022-08-26T01:11:12.088Z,20.80
2022-08-26T01:13:39.384Z,20.80
2022-08-26T01:16:10.617Z,20.90
2022-08-26T01:18:40.526Z,20.80
2022-08-26T01:21:19.305Z,20.80
2022-08-26T01:23:50.619Z,20.70
2022-08-26T01:26:20.091Z,20.70
2022-08-26T01:28:50.709Z,20.80
2022-08-26T01:31:22.619Z,20.80
2022-08-26T01:34:14.901Z,20.70
2022-08-26T01:36:42.137Z,20.70
2022-08-26T01:39:10.022Z,20.80
2022-08-26T01:41:38.901Z,20.70
2022-08-26T01:44:09.728Z,20.60
2022-08-26T01:46:37.000Z,20.50
2022-08-26T01:49:06.535Z,20.70
2022-08-26T01:51:37.380Z,20.70
2022-08-26T01:54:06.350Z,20.70
2022-08-26T01:56:36.679Z,20.60
2022-08-26T01:59:08.121Z,20.60
2022-08-26T02:01:37.523Z,20.60
2022-08-26T02:04:17.654Z,20.40
2022-08-26T02:06:45.155Z,20.30
2022-08-26T02:09:13.118Z,20.40
2022-08-26T02:11:42.435Z,20.30
2022-08-26T02:14:13.245Z,20.30
2022-08-26T02:16:42.910Z,20.30
2022-08-26T02:19:16.964Z,20.20
2022-08-26T02:21:46.028Z,20.10
2022-08-26T02:24:27.495Z,20.20
2022-08-26T02:26:56.224Z,20.20
2022-08-26T02:29:41.570Z,20.40
2022-08-26T02:32:10.267Z,20.30
2022-08-26T02:34:37.414Z,20.30
2022-08-26T02:37:07.734Z,20.30
2022-08-26T02:39:36.614Z,20.30
2022-08-26T02:42:04.533Z,20.40
2022-08-26T02:44:32.361Z,20.40
2022-08-26T02:47:01.079Z,20.40
2022-08-26T02:49:28.466Z,20.40
2022-08-26T02:51:55.359Z,20.50
2022-08-26T02:54:22.644Z,20.30
2022-08-26T02:56:50.223Z,20.30
2022-08-26T02:59:17.578Z,20.40
2022-08-26T03:01:44.615Z,20.40
2022-08-26T03:04:12.600Z,20.50
2022-08-26T03:06:41.501Z,20.40
2022-08-26T03:09:09.240Z,20.40
2022-08-26T03:11:37.088Z,20.30
2022-08-26T03:14:04.431Z,20.10
2022-08-26T03:16:33.467Z,20.00
2022-08-26T03:19:02.271Z,20.00
2022-08-26T03:21:30.315Z,20.00
2022-08-26T03:23:58.748Z,19.90
2022-08-26T03:26:26.681Z,19.90
2022-08-26T03:28:55.141Z,20.00
2022-08-26T03:31:22.015Z,20.20
2022-08-26T03:33:51.519Z,19.90
2022-08-26T03:36:19.037Z,19.60
2022-08-26T03:38:46.387Z,19.70
2022-08-26T03:41:13.454Z,19.50
2022-08-26T03:43:41.030Z,19.50
2022-08-26T03:46:10.539Z,19.40
2022-08-26T03:48:38.313Z,19.30
2022-08-26T03:51:12.495Z,19.40
2022-08-26T03:53:39.340Z,19.30
2022-08-26T03:56:06.390Z,19.30
2022-08-26T03:58:33.559Z,19.50
2022-08-26T04:01:00.412Z,19.60
2022-08-26T04:03:27.663Z,19.60
2022-08-26T04:05:54.472Z,19.60
2022-08-26T04:08:21.278Z,19.60
2022-08-26T04:10:48.703Z,19.70
2022-08-26T04:13:17.975Z,19.70
2022-08-26T04:15:45.198Z,19.70
2022-08-26T04:18:12.016Z,19.80
2022-08-26T04:20:39.222Z,19.70
2022-08-26T04:23:06.171Z,19.70
2022-08-26T04:25:33.104Z,19.80
2022-08-26T04:27:59.942Z,19.80
2022-08-26T04:30:26.814Z,19.90
2022-08-26T04:32:53.645Z,19.80
2022-08-26T04:35:25.803Z,19.80
2022-08-26T04:37:53.129Z,20.20
2022-08-26T04:40:20.155Z,20.10
2022-08-26T04:42:47.190Z,20.10
2022-08-26T04:45:14.256Z,20.20
2022-08-26T04:47:41.086Z,20.30
2022-08-26T04:50:08.580Z,20.30
2022-08-26T04:52:37.879Z,20.20
2022-08-26T04:55:06.638Z,20.40
2022-08-26T04:57:35.546Z,20.40
2022-08-26T05:00:05.442Z,20.40
2022-08-26T05:02:32.218Z,20.60
2022-08-26T05:04:59.678Z,20.70
2022-08-26T05:07:26.681Z,20.90
2022-08-26T05:09:53.717Z,20.80
2022-08-26T05:12:21.380Z,20.80
2022-08-26T05:14:48.254Z,21.10
2022-08-26T05:17:15.163Z,21.20
2022-08-26T05:19:42.946Z,21.30
2022-08-26T05:22:09.940Z,21.40
2022-08-26T05:24:40.415Z,21.60
2022-08-26T05:27:11.429Z,21.90
2022-08-26T05:29:39.165Z,22.10
2022-08-26T05:32:06.461Z,22.40
2022-08-26T05:34:33.546Z,22.50
2022-08-26T05:37:00.406Z,22.70
2022-08-26T05:39:27.285Z,23.00
2022-08-26T05:41:54.219Z,23.10
2022-08-26T05:44:21.028Z,23.30
2022-08-26T05:46:49.466Z,23.60
2022-08-26T05:49:18.168Z,23.70
2022-08-26T05:51:47.713Z,23.90
2022-08-26T05:54:21.906Z,24.00
2022-08-26T05:56:52.435Z,24.10
2022-08-26T05:59:21.393Z,24.30
2022-08-26T06:01:51.603Z,24.50
2022-08-26T06:04:18.448Z,24.70
2022-08-26T06:06:47.225Z,24.70
2022-08-26T06:09:14.798Z,24.80
2022-08-26T06:11:45.042Z,24.80
2022-08-26T06:14:12.273Z,24.80
2022-08-26T06:16:41.856Z,24.80
2022-08-26T06:19:11.823Z,25.00
2022-08-26T06:21:40.912Z,25.20
2022-08-26T06:24:10.492Z,25.10
2022-08-26T06:26:38.859Z,24.90
2022-08-26T06:29:09.953Z,24.80
2022-08-26T06:31:37.255Z,24.80
2022-08-26T06:34:10.524Z,24.70
2022-08-26T06:36:40.222Z,24.80
2022-08-26T06:39:12.529Z,24.90
2022-08-26T06:41:43.396Z,25.00
2022-08-26T06:44:15.823Z,24.90
2022-08-26T06:46:44.180Z,25.00
2022-08-26T06:49:11.902Z,25.00
2022-08-26T06:51:40.469Z,25.30
2022-08-26T06:54:08.526Z,25.50
2022-08-26T06:56:40.191Z,25.50
2022-08-26T06:59:08.583Z,25.70
2022-08-26T07:01:42.905Z,25.70
2022-08-26T07:04:11.648Z,25.70
2022-08-26T07:06:40.845Z,25.40
2022-08-26T07:09:10.396Z,25.30
2022-08-26T07:11:38.932Z,25.50
2022-08-26T07:14:07.215Z,25.30
2022-08-26T07:16:35.775Z,25.40
2022-08-26T07:19:10.828Z,25.50
2022-08-26T07:21:39.462Z,25.50
2022-08-26T07:24:06.567Z,25.40
2022-08-26T07:26:33.489Z,25.60
2022-08-26T07:29:01.842Z,25.60
2022-08-26T07:31:35.992Z,25.60
2022-08-26T07:34:06.573Z,25.70
2022-08-26T07:36:33.576Z,25.70
2022-08-26T07:39:00.367Z,25.70
2022-08-26T07:41:27.609Z,25.80
2022-08-26T07:43:54.651Z,25.80
2022-08-26T07:46:27.432Z,26.00
2022-08-26T07:48:58.549Z,26.00
2022-08-26T07:51:26.567Z,26.00
2022-08-26T07:53:54.046Z,26.10
2022-08-26T07:56:22.339Z,26.30
2022-08-26T07:58:51.720Z,26.40
2022-08-26T08:01:23.898Z,26.40
2022-08-26T08:03:52.777Z,26.40
2022-08-26T08:06:21.800Z,26.20
2022-08-26T08:08:50.854Z,26.30
2022-08-26T08:11:20.096Z,26.20
2022-08-26T08:13:47.611Z,26.40
2022-08-26T08:16:16.125Z,26.50
2022-08-26T08:18:42.962Z,26.80
2022-08-26T08:21:25.076Z,26.70
2022-08-26T08:23:54.060Z,26.60
2022-08-26T08:26:22.342Z,26.50
2022-08-26T08:28:49.892Z,26.60
2022-08-26T08:34:08.014Z,26.90
2022-08-26T08:36:36.267Z,26.80
2022-08-26T08:39:03.634Z,26.90
2022-08-26T08:41:36.167Z,26.90
2022-08-26T08:44:04.181Z,26.90
2022-08-26T08:46:31.654Z,27.10
2022-08-26T08:48:59.556Z,27.10
2022-08-26T08:51:32.932Z,27.00
2022-08-26T08:54:01.049Z,27.10
2022-08-26T08:56:39.161Z,27.10
2022-08-26T08:59:15.805Z,27.30
2022-08-26T09:01:54.168Z,27.00
2022-08-26T09:04:56.111Z,27.00
2022-08-26T09:07:52.223Z,27.00
2022-08-26T09:10:46.091Z,27.00
2022-08-26T09:13:25.426Z,27.00
2022-08-26T09:16:05.806Z,26.80
2022-08-26T09:18:57.230Z,27.10
2022-08-26T09:21:25.514Z,27.20
2022-08-26T09:23:54.777Z,27.50
2022-08-26T09:26:40.964Z,27.40
2022-08-26T09:31:46.490Z,27.50
2022-08-26T09:34:28.092Z,27.30
2022-08-26T09:36:57.277Z,27.60
2022-08-26T09:39:24.084Z,27.80
2022-08-26T09:42:08.093Z,27.90
2022-08-26T09:44:58.168Z,27.70
2022-08-26T09:47:36.411Z,27.60
2022-08-26T09:50:23.768Z,27.70
2022-08-26T09:53:30.297Z,28.00
2022-08-26T09:56:25.483Z,27.90
2022-08-26T09:58:56.058Z,27.90
2022-08-26T10:01:34.250Z,28.10
2022-08-26T10:04:09.961Z,27.90
2022-08-26T10:07:02.397Z,28.20
2022-08-26T10:09:33.133Z,28.10
2022-08-26T10:12:15.371Z,28.10
2022-08-26T10:15:08.010Z,28.20
2022-08-26T10:18:04.157Z,28.00
2022-08-26T10:20:38.038Z,28.10
2022-08-26T10:23:20.404Z,28.20
2022-08-26T10:26:10.543Z,28.40
2022-08-26T10:28:49.888Z,28.30
2022-08-26T10:31:40.212Z,28.20
2022-08-26T10:34:08.392Z,28.40
2022-08-26T10:37:05.035Z,28.60
2022-08-26T10:39:34.388Z,28.40
2022-08-26T10:42:05.316Z,28.30
2022-08-26T10:44:37.399Z,28.50
2022-08-26T10:47:24.403Z,28.70
2022-08-26T10:49:56.467Z,28.70
2022-08-26T10:52:55.482Z,28.80
2022-08-26T10:55:35.000Z,28.70
2022-08-26T10:58:28.033Z,28.70
2022-08-26T11:01:10.438Z,28.60
2022-08-26T11:03:48.273Z,28.80
2022-08-26T11:06:19.700Z,28.80
2022-08-26T11:09:07.340Z,28.80
2022-08-26T11:11:40.292Z,28.70
2022-08-26T11:14:28.968Z,28.80
2022-08-26T11:16:57.626Z,28.70
2022-08-26T11:19:50.515Z,28.60
2022-08-26T11:22:32.760Z,28.70
2022-08-26T11:25:23.522Z,28.70
2022-08-26T11:27:56.885Z,28.70
2022-08-26T11:30:24.155Z,28.70
2022-08-26T11:32:54.656Z,28.80
2022-08-26T11:35:21.526Z,28.90
2022-08-26T11:37:50.708Z,28.80
2022-08-26T11:40:21.888Z,29.10
2022-08-26T11:42:59.818Z,28.80
2022-08-26T11:45:37.264Z,28.70
2022-08-26T11:48:21.109Z,28.70
2022-08-26T11:50:58.351Z,28.90
2022-08-26T11:53:26.797Z,28.90
2022-08-26T11:55:59.240Z,29.00
2022-08-26T11:58:27.686Z,29.10
2022-08-26T12:01:04.080Z,29.20
2022-08-26T12:03:49.462Z,29.20
2022-08-26T12:06:30.158Z,29.30
2022-08-26T12:08:58.597Z,29.30
2022-08-26T12:11:33.454Z,29.30
2022-08-26T12:14:07.224Z,29.20
2022-08-26T12:16:40.163Z,29.40
2022-08-26T12:19:28.590Z,29.60
2022-08-26T12:22:05.031Z,29.50
2022-08-26T12:24:32.131Z,29.40
2022-08-26T12:27:29.732Z,29.50
2022-08-26T12:30:14.017Z,29.50
2022-08-26T12:32:57.119Z,29.50
2022-08-26T12:35:26.129Z,29.70
2022-08-26T12:37:55.146Z,29.80
2022-08-26T12:40:31.340Z,29.50
2022-08-26T12:43:00.126Z,29.70
2022-08-26T12:45:30.486Z,29.60
2022-08-26T12:48:00.810Z,29.50
2022-08-26T12:50:31.965Z,29.50
2022-08-26T12:53:09.275Z,29.50
2022-08-26T12:55:48.581Z,29.70
2022-08-26T12:58:15.397Z,29.80
2022-08-26T13:00:43.815Z,29.70
2022-08-26T13:03:35.646Z,29.80
2022-08-26T13:06:20.995Z,29.70
2022-08-26T13:08:57.474Z,29.80
2022-08-26T13:11:31.567Z,29.80
2022-08-26T13:14:07.477Z,29.80
2022-08-26T13:16:34.950Z,29.70
2022-08-26T13:19:05.869Z,29.70
2022-08-26T13:21:49.249Z,29.70
2022-08-26T13:24:20.804Z,29.50
2022-08-26T13:26:49.359Z,29.60
2022-08-26T13:29:16.373Z,29.70
2022-08-26T13:31:44.308Z,29.70
2022-08-26T13:34:15.115Z,29.70
2022-08-26T13:36:42.011Z,29.80
2022-08-26T13:39:08.989Z,29.80
2022-08-26T13:41:35.908Z,29.70
2022-08-26T13:44:02.857Z,29.80
2022-08-26T13:46:30.278Z,29.70
2022-08-26T13:48:58.071Z,29.70
2022-08-26T13:51:26.652Z,29.80
2022-08-26T13:53:54.448Z,29.70
2022-08-26T13:56:22.447Z,29.80
2022-08-26T13:58:49.641Z,29.80
2022-08-26T14:01:17.635Z,29.80
2022-08-26T14:03:44.906Z,29.90
2022-08-26T14:06:12.369Z,29.80
2022-08-26T14:08:39.925Z,30.00
2022-08-26T14:11:07.084Z,29.90
2022-08-26T14:13:34.644Z,29.90
2022-08-26T14:16:04.435Z,29.90
2022-08-26T14:18:38.466Z,29.80
2022-08-26T14:21:11.422Z,29.70
2022-08-26T14:23:38.292Z,29.70
2022-08-26T14:26:05.394Z,29.60
2022-08-26T14:28:32.321Z,29.50
2022-08-26T14:30:59.224Z,29.80
2022-08-26T14:33:28.972Z,29.60
2022-08-26T14:35:55.823Z,29.70
2022-08-26T14:38:22.667Z,29.60
2022-08-26T14:40:49.554Z,29.60
2022-08-26T14:43:16.441Z,29.60
2022-08-26T14:45:44.763Z,29.60
2022-08-26T14:48:11.624Z,29.50
2022-08-26T14:50:38.770Z,29.40
2022-08-26T14:53:05.643Z,29.50
2022-08-26T14:55:35.266Z,29.50
2022-08-26T14:58:02.253Z,29.50
2022-08-26T15:00:29.472Z,29.50
2022-08-26T15:02:56.795Z,29.40
2022-08-26T15:05:24.242Z,29.30
2022-08-26T15:07:51.138Z,29.40
2022-08-26T15:10:18.707Z,29.40
2022-08-26T15:12:46.001Z,29.10
2022-08-26T15:15:15.447Z,29.00
2022-08-26T15:17:42.334Z,29.00
2022-08-26T15:20:12.229Z,29.10
2022-08-26T15:22:40.376Z,29.00
2022-08-26T15:25:08.292Z,28.90
2022-08-26T15:27:35.607Z,28.80
2022-08-26T15:30:05.266Z,28.60
2022-08-26T15:32:32.113Z,28.60
2022-08-26T15:34:58.970Z,28.60
2022-08-26T15:37:25.842Z,28.60
2022-08-26T15:39:52.750Z,28.60
2022-08-26T15:42:19.846Z,28.60
2022-08-26T15:44:46.743Z,28.70
2022-08-26T15:47:13.737Z,28.60
2022-08-26T15:49:40.952Z,28.60
2022-08-26T15:52:08.322Z,28.60
2022-08-26T15:54:35.235Z,28.60
2022-08-26T15:57:03.634Z,28.60
2022-08-26T15:59:30.908Z,28.60
2022-08-26T16:01:59.291Z,28.40
2022-08-26T16:04:26.768Z,28.40
2022-08-26T16:06:54.185Z,28.30
2022-08-26T16:09:24.351Z,28.00
2022-08-26T16:11:52.591Z,28.10
2022-08-26T16:14:19.744Z,27.90
2022-08-26T16:16:46.661Z,27.90
2022-08-26T16:19:13.481Z,27.90
2022-08-26T16:21:41.505Z,27.50
2022-08-26T16:24:08.858Z,27.50
2022-08-26T16:26:37.565Z,27.30
2022-08-26T16:29:09.001Z,27.00
2022-08-26T16:31:36.429Z,27.00
2022-08-26T16:34:03.584Z,27.00
2022-08-26T16:36:30.464Z,26.80
2022-08-26T16:38:57.593Z,26.60
2022-08-26T16:41:26.908Z,26.50
2022-08-26T16:43:54.551Z,26.30
2022-08-26T16:46:23.083Z,26.20
2022-08-26T16:48:49.959Z,26.10
2022-08-26T16:51:19.432Z,26.10
2022-08-26T16:53:46.310Z,26.10
2022-08-26T16:56:17.974Z,26.10
2022-08-26T16:58:45.071Z,26.10
2022-08-26T17:01:12.063Z,26.00
2022-08-26T17:03:39.009Z,26.00
2022-08-26T17:06:06.112Z,26.00
2022-08-26T17:08:33.092Z,25.90
2022-08-26T17:11:00.584Z,25.70
2022-08-26T17:13:35.302Z,25.50
2022-08-26T17:16:04.609Z,25.40
2022-08-26T17:18:31.666Z,25.30
2022-08-26T17:21:02.787Z,25.20
2022-08-26T17:23:29.871Z,25.20
2022-08-26T17:25:56.833Z,25.20
2022-08-26T17:28:23.722Z,25.00
2022-08-26T17:30:50.603Z,25.00
2022-08-26T17:33:22.092Z,24.80
2022-08-26T17:35:51.706Z,24.70
2022-08-26T17:38:19.145Z,24.50
2022-08-26T17:40:45.949Z,24.60
2022-08-26T17:43:12.954Z,24.40
2022-08-26T17:45:40.607Z,24.30
2022-08-26T17:48:08.090Z,24.10
2022-08-26T17:50:35.189Z,23.90
2022-08-26T17:53:02.100Z,23.80
2022-08-26T17:55:28.936Z,23.80
2022-08-26T17:57:55.991Z,23.80
2022-08-26T18:00:25.452Z,23.80
2022-08-26T18:02:53.794Z,23.60
2022-08-26T18:05:21.317Z,23.50
2022-08-26T18:07:48.193Z,23.50
2022-08-26T18:10:17.583Z,23.40
2022-08-26T18:12:44.872Z,23.30
2022-08-26T18:15:13.471Z,23.30
2022-08-26T18:17:40.600Z,23.40
2022-08-26T18:20:10.043Z,23.30
2022-08-26T18:22:37.013Z,23.30
2022-08-26T18:25:05.584Z,23.40
2022-08-26T18:27:32.766Z,23.40
2022-08-26T18:29:59.545Z,23.40
2022-08-26T18:32:26.403Z,23.40
2022-08-26T18:34:53.232Z,23.20
2022-08-26T18:37:20.110Z,23.40
2022-08-26T18:39:46.937Z,23.30
2022-08-26T18:42:13.759Z,23.10
2022-08-26T18:44:40.584Z,23.20
2022-08-26T18:47:07.432Z,23.10
2022-08-26T18:49:34.759Z,23.20
2022-08-26T18:52:01.717Z,23.20
2022-08-26T18:54:28.722Z,23.20
2022-08-26T18:56:56.029Z,23.30
2022-08-26T18:59:29.655Z,23.00
2022-08-26T19:01:57.953Z,22.90
2022-08-26T19:04:25.009Z,22.90
2022-08-26T19:06:53.671Z,22.70
2022-08-26T19:09:21.130Z,22.70
2022-08-26T19:11:49.614Z,22.60
2022-08-26T19:14:17.772Z,22.70
2022-08-26T19:16:48.110Z,22.70
2022-08-26T19:19:15.986Z,22.60
2022-08-26T19:21:43.167Z,22.50
2022-08-26T19:24:13.285Z,22.50
2022-08-26T19:26:40.388Z,22.40
2022-08-26T19:29:07.741Z,22.30
2022-08-26T19:31:35.352Z,22.30
2022-08-26T19:34:02.843Z,22.30
2022-08-26T19:36:30.093Z,22.20
2022-08-26T19:38:57.922Z,22.00
2022-08-26T19:41:36.674Z,21.90
2022-08-26T19:44:09.136Z,22.00
2022-08-26T19:46:36.666Z,21.80
2022-08-26T19:49:04.189Z,21.90
2022-08-26T19:51:33.823Z,21.90
2022-08-26T19:54:02.078Z,21.90
2022-08-26T19:56:30.209Z,21.90
2022-08-26T19:58:57.906Z,21.90
2022-08-26T20:01:25.380Z,21.80
2022-08-26T20:03:53.134Z,21.80
2022-08-26T20:06:20.443Z,21.90
2022-08-26T20:08:50.724Z,21.90
2022-08-26T20:11:19.326Z,21.80
2022-08-26T20:13:47.692Z,21.70
2022-08-26T20:16:16.181Z,21.80
2022-08-26T20:18:44.732Z,21.70
2022-08-26T20:21:13.042Z,21.60
2022-08-26T20:23:40.584Z,21.60
2022-08-26T20:26:08.151Z,21.60
2022-08-26T20:28:35.350Z,21.60
2022-08-26T20:31:03.303Z,21.60
2022-08-26T20:33:32.063Z,21.60
2022-08-26T20:36:13.227Z,21.60
2022-08-26T20:38:40.151Z,21.60
2022-08-26T20:41:07.264Z,21.60
2022-08-26T20:43:34.179Z,21.50
2022-08-26T20:46:01.347Z,21.60
2022-08-26T20:48:28.282Z,21.60
2022-08-26T20:50:59.746Z,21.50
2022-08-26T20:53:28.604Z,21.40
2022-08-26T20:56:00.331Z,21.50
2022-08-26T20:58:27.516Z,21.50
2022-08-26T21:00:54.635Z,21.40
2022-08-26T21:03:21.661Z,21.40
2022-08-26T21:05:49.298Z,21.40
2022-08-26T21:08:16.263Z,21.30
2022-08-26T21:10:43.321Z,21.40
2022-08-26T21:13:10.331Z,21.30
2022-08-26T21:15:37.451Z,21.40
2022-08-26T21:18:04.797Z,21.40
2022-08-26T21:20:32.610Z,21.40
2022-08-26T21:22:59.511Z,21.40
2022-08-26T21:25:26.646Z,21.40
2022-08-26T21:27:53.479Z,21.40
2022-08-26T21:30:20.471Z,21.40
2022-08-26T21:32:47.382Z,21.30
2022-08-26T21:35:14.336Z,21.20
2022-08-26T21:37:41.256Z,21.20
2022-08-26T21:40:08.803Z,21.40
2022-08-26T21:42:36.012Z,21.40
2022-08-26T21:45:04.770Z,21.30
2022-08-26T21:47:31.888Z,21.20
2022-08-26T21:49:59.207Z,21.20
2022-08-26T21:52:26.280Z,21.10
2022-08-26T21:54:58.015Z,21.20
2022-08-26T21:57:26.099Z,21.20
2022-08-26T21:59:53.397Z,21.20
2022-08-26T22:02:21.102Z,21.30
2022-08-26T22:04:48.976Z,21.20
2022-08-26T22:07:17.663Z,21.10
2022-08-26T22:09:44.666Z,21.20
2022-08-26T22:12:12.572Z,21.20
2022-08-26T22:14:39.407Z,21.20
2022-08-26T22:17:06.509Z,21.00
2022-08-26T22:19:33.982Z,21.00
2022-08-26T22:22:01.130Z,21.10
2022-08-26T22:24:28.094Z,21.10
2022-08-26T22:26:55.514Z,21.10
2022-08-26T22:29:22.866Z,21.10
2022-08-26T22:31:49.840Z,21.00
2022-08-26T22:34:17.572Z,20.90
2022-08-26T22:36:47.407Z,20.80
2022-08-26T22:39:17.218Z,20.80
2022-08-26T22:41:45.077Z,20.70
2022-08-26T22:44:12.941Z,20.70
2022-08-26T22:46:40.883Z,20.70
2022-08-26T22:49:09.767Z,20.70
2022-08-26T22:51:36.793Z,20.80
2022-08-26T22:54:04.226Z,20.70
2022-08-26T22:56:31.213Z,20.70
2022-08-26T22:58:58.059Z,20.60
2022-08-26T23:01:24.900Z,20.60
2022-08-26T23:03:52.072Z,20.50
2022-08-26T23:06:18.915Z,20.50
2022-08-26T23:08:45.895Z,20.40
2022-08-26T23:11:14.123Z,20.50
2022-08-26T23:13:41.359Z,20.50
2022-08-26T23:16:11.379Z,20.50
2022-08-26T23:18:39.995Z,20.40
2022-08-26T23:21:07.653Z,20.40
2022-08-26T23:23:34.706Z,20.20
2022-08-26T23:26:05.956Z,20.20
2022-08-26T23:28:34.286Z,20.10
2022-08-26T23:31:01.259Z,20.30
2022-08-26T23:33:28.609Z,20.40
2022-08-26T23:35:55.633Z,20.40
2022-08-26T23:38:22.477Z,20.30
2022-08-26T23:40:49.436Z,20.20
2022-08-26T23:43:16.333Z,20.10
2022-08-26T23:45:43.201Z,20.30
2022-08-26T23:48:10.266Z,20.30
2022-08-26T23:50:37.252Z,20.20
2022-08-26T23:53:04.091Z,20.30
2022-08-26T23:55:34.485Z,20.30
2022-08-26T23:58:01.718Z,20.30
